Thunder radar more information blitzortung!


Löydät sääaseman tiedot myös:

European Weather Network

Finland Weather Exchange

Weather Underground

AWEKAS



Weather Underground säähistoriasivu

Päivittäin yhteenveto Helmikuu 22, 2017 Yksiköt:  Englantilaiset    Metriset   Molemmat
« Edellinen Päivä
Seuraava Päivä »
Päivittäin Viikoittain Kuukausittain Vuosittain Mukautettu
  Korkea: Matala: Keskiarvo:
Lämpötila: TemperatureC °F -11.5 °F -6.6 °F
Kastepiste: DewpointC °F -12.8 °F -8.2 °F
Kosteus: Humidity % 76 % 87 %
Tuulen nopeus: WindSpeedKMH mph 0.0 mph 3.7 mph
Tuulenpuuska: WindSpeedGustKMH mph - -
Tuuli:- - SSE
Ilmanpaine: PressurehPa in 969.1 in -
Sade: 0.0 in    
Historical Graphs
 
 
Taulukkotiedot Helmikuu 22, 2017
Aika Lämpötila Kastepiste Ilmanpaine Tuuli Tuulen nopeus Tuulenpuuska Kosteus Sademäärä (tunneittain)
TemperatureC °F DewpointC °F PressurehPa in Calm     Humidity % HourlyPrecipMM in
00:00 -10.2 °F -11.3 °F 996.5 in Calm     92 % 0.0 in
00:15 -10.2 °F -11.3 °F 996.5 in Calm     92 % 0.0 in
00:30 -10.2 °F -11.3 °F 996.5 in Calm     92 % 0.0 in
00:45 -10.2 °F -11.2 °F 996.5 in Calm   1.6 mph 92 % 0.0 in
01:00 -10.3 °F -11.5 °F 996.5 in Calm     91 % 0.0 in
01:15 -10.6 °F -11.7 °F 996.2 in Calm     91 % 0.0 in
01:30 -10.7 °F -11.9 °F 996.2 in Calm     91 % 0.0 in
01:45 -10.9 °F -12.1 °F 995.8 in Calm     91 % 0.0 in
02:00 -11.2 °F -12.3 °F 995.8 in Calm     91 % 0.0 in
02:15 -11.4 °F -12.6 °F 995.8 in Calm     91 % 0.0 in
02:30 -11.5 °F -12.7 °F 995.5 in Calm     91 % 0.0 in
02:45 -11.4 °F -12.5 °F 995.5 in Calm   1.6 mph 92 % 0.0 in
03:00 -11.3 °F -12.3 °F 995.5 in Calm     92 % 0.0 in
03:15 -11.2 °F -12.2 °F 995.1 in Calm   1.6 mph 92 % 0.0 in
03:30 -10.9 °F -12.0 °F 994.8 in Calm   6.4 mph 92 % 0.0 in
03:45 -10.7 °F -11.7 °F 994.8 in SSW 1.6 mph 6.4 mph 92 % 0.0 in
04:00 -10.6 °F -11.7 °F 994.5 in Calm   3.2 mph 91 % 0.0 in
04:15 -10.7 °F -11.8 °F 994.5 in Calm   4.8 mph 91 % 0.0 in
04:30 -10.8 °F -12.2 °F 994.1 in Calm   1.6 mph 90 % 0.0 in
04:45 -11.0 °F -12.3 °F 993.5 in Calm     90 % 0.0 in
05:00 -11.5 °F -12.8 °F 993.5 in Calm   3.2 mph 90 % 0.0 in
05:15 -11.2 °F -12.2 °F 993.1 in Calm   3.2 mph 92 % 0.0 in
05:30 -11.0 °F -12.0 °F 992.4 in Calm   3.2 mph 92 % 0.0 in
05:45 -10.2 °F -11.1 °F 992.4 in Calm   8.0 mph 93 % 0.0 in
06:00 -9.6 °F -10.5 °F 992.1 in South 1.6 mph 9.7 mph 93 % 0.0 in
06:15 -9.4 °F -10.4 °F 991.8 in SSE 1.6 mph 8.0 mph 92 % 0.0 in
06:30 -9.3 °F -10.3 °F 991.4 in SSE 1.6 mph 8.0 mph 92 % 0.0 in
06:45 -8.9 °F -10.0 °F 991.4 in SSE 1.6 mph 9.7 mph 92 % 0.0 in
07:00 -8.8 °F -9.9 °F 991.1 in Calm   1.6 mph 92 % 0.0 in
07:15 -9.0 °F -10.1 °F 991.1 in Calm   3.2 mph 92 % 0.0 in
07:30 -9.1 °F -10.2 °F 990.7 in Calm   1.6 mph 92 % 0.0 in
07:45 -9.2 °F -10.2 °F 990.4 in Calm   6.4 mph 92 % 0.0 in
08:00 -9.1 °F -10.1 °F 990.1 in SSE 1.6 mph 8.0 mph 92 % 0.0 in
08:15 -8.9 °F -10.1 °F 990.1 in SSE 1.6 mph 8.0 mph 91 % 0.0 in
08:30 -8.7 °F -9.9 °F 989.7 in South 1.6 mph 9.7 mph 91 % 0.0 in
08:45 -8.4 °F -9.8 °F 989.4 in SSE 1.6 mph 8.0 mph 90 % 0.0 in
09:00 -8.1 °F -9.5 °F 989.1 in South 3.2 mph 9.7 mph 90 % 0.0 in
09:15 -7.8 °F -9.1 °F 988.7 in South 3.2 mph 9.7 mph 90 % 0.0 in
09:30 -7.4 °F -8.8 °F 988.4 in South 4.8 mph 17.7 mph 90 % 0.0 in
09:45 -7.0 °F -8.5 °F 988.4 in South 8.0 mph 16.1 mph 89 % 0.0 in
10:00 -6.6 °F -8.1 °F 988.0 in SSE 8.0 mph 19.3 mph 89 % 0.0 in
10:15 -6.3 °F -7.8 °F 987.7 in South 4.8 mph 16.1 mph 89 % 0.0 in
10:30 -6.0 °F -7.7 °F 987.7 in SSE 6.4 mph 17.7 mph 88 % 0.0 in
10:45 -5.8 °F -7.4 °F 987.4 in South 4.8 mph 14.5 mph 88 % 0.0 in
11:00 -5.5 °F -7.2 °F 987.0 in South 6.4 mph 16.1 mph 88 % 0.0 in
11:15 -5.2 °F -7.0 °F 986.7 in South 6.4 mph 19.3 mph 87 % 0.0 in
11:30 -5.0 °F -6.8 °F 986.0 in SSE 4.8 mph 16.1 mph 87 % 0.0 in
11:45 -4.7 °F -6.6 °F 985.7 in SSE 4.8 mph 17.7 mph 87 % 0.0 in
12:00 -4.5 °F -6.3 °F 985.3 in South 6.4 mph 16.1 mph 87 % 0.0 in
12:15 -4.2 °F -6.1 °F 985.0 in South 6.4 mph 20.9 mph 87 % 0.0 in
12:30 -4.1 °F -6.1 °F 984.6 in South 8.0 mph 29.0 mph 86 % 0.0 in
12:45 -3.9 °F -5.9 °F 984.0 in SSE 6.4 mph 20.9 mph 86 % 0.0 in
13:00 -3.7 °F -5.9 °F 983.6 in South 6.4 mph 20.9 mph 85 % 0.0 in
13:15 -3.5 °F -5.8 °F 983.3 in South 8.0 mph 19.3 mph 84 % 0.0 in
13:30 -3.3 °F -5.8 °F 983.0 in South 8.0 mph 25.7 mph 83 % 0.0 in
13:45 -3.2 °F -5.7 °F 982.3 in SSE 6.4 mph 17.7 mph 83 % 0.0 in
14:00 -3.1 °F -5.6 °F 981.9 in SSE 6.4 mph 24.1 mph 83 % 0.0 in
14:15 -3.0 °F -5.6 °F 981.6 in SSE 6.4 mph 29.0 mph 82 % 0.0 in
14:30 -2.9 °F -5.9 °F 980.9 in South 8.0 mph 29.0 mph 80 % 0.0 in
14:45 -2.8 °F -5.8 °F 980.9 in South 8.0 mph 30.6 mph 80 % 0.0 in
15:00 -2.9 °F -5.7 °F 980.2 in SE 4.8 mph 22.5 mph 81 % 0.0 in
15:15 -3.1 °F -5.9 °F 979.9 in SSE 6.4 mph 20.9 mph 81 % 0.0 in
15:30 -3.2 °F -6.0 °F 979.6 in South 6.4 mph 22.5 mph 81 % 0.0 in
15:45 -3.3 °F -6.1 °F 979.2 in SSE 6.4 mph 17.7 mph 81 % 0.0 in
16:00 -3.3 °F -6.1 °F 978.6 in SE 9.7 mph 30.6 mph 81 % 0.0 in
16:15 -3.3 °F -6.2 °F 978.2 in SE 6.4 mph 17.7 mph 80 % 0.0 in
16:30 -3.2 °F -6.5 °F 977.9 in SSE 6.4 mph 29.0 mph 78 % 0.0 in
16:45 -3.3 °F -7.0 °F 977.5 in SSE 8.0 mph 24.1 mph 76 % 0.0 in
17:00 -3.3 °F -7.0 °F 977.2 in SSE 6.4 mph 22.5 mph 76 % 0.0 in
17:15 -3.4 °F -6.9 °F 976.9 in SE 6.4 mph 20.9 mph 77 % 0.0 in
17:30 -3.7 °F -6.5 °F 976.5 in SE 4.8 mph 22.5 mph 81 % 0.0 in
17:45 -3.9 °F -6.4 °F 976.2 in SSE 4.8 mph 22.5 mph 83 % 0.0 in
18:00 -4.1 °F -6.4 °F 975.8 in SE 6.4 mph 30.6 mph 84 % 0.0 in
18:15 -4.3 °F -6.3 °F 975.5 in SSE 6.4 mph 24.1 mph 86 % 0.0 in
18:30 -4.4 °F -6.1 °F 975.2 in SSE 4.8 mph 14.5 mph 88 % 0.0 in
18:45 -4.6 °F -6.1 °F 974.8 in SE 4.8 mph 25.7 mph 89 % 0.0 in
19:00 -4.7 °F -6.1 °F 974.8 in SE 4.8 mph 24.1 mph 90 % 0.0 in
19:15 -4.8 °F -6.1 °F 974.5 in SSE 4.8 mph 16.1 mph 91 % 0.0 in
19:30 -4.9 °F -6.2 °F 974.2 in SE 4.8 mph 16.1 mph 91 % 0.0 in
19:45 -4.9 °F -6.0 °F 973.8 in SE 4.8 mph 20.9 mph 92 % 0.0 in
20:00 -5.0 °F -6.2 °F 973.5 in SSE 4.8 mph 17.7 mph 91 % 0.0 in
20:15 -5.1 °F -6.2 °F 973.1 in SE 6.4 mph 25.7 mph 92 % 0.0 in
20:30 -5.1 °F -6.2 °F 972.8 in SSE 4.8 mph 14.5 mph 92 % 0.0 in
20:45 -5.1 °F -6.3 °F 972.5 in SE 3.2 mph 14.5 mph 91 % 0.0 in
21:00 -5.0 °F -6.4 °F 972.1 in SE 6.4 mph 25.7 mph 90 % 0.0 in
21:15 -5.0 °F -5.3 °F 971.8 in SE 4.8 mph 17.7 mph 98 % 0.0 in
21:30 -4.9 °F -6.3 °F 971.4 in SE 4.8 mph 22.5 mph 90 % 0.0 in
21:45 -5.0 °F -6.4 °F 970.8 in SSE 4.8 mph 14.5 mph 90 % 0.0 in
22:00 -5.0 °F -6.4 °F 970.8 in ESE 6.4 mph 22.5 mph 90 % 0.0 in
22:15 -4.9 °F -6.5 °F 970.4 in SE 3.2 mph 12.9 mph 89 % 0.0 in
22:30 -4.8 °F -6.4 °F 970.4 in SE 4.8 mph 19.3 mph 89 % 0.0 in
22:45 -4.8 °F -6.3 °F 970.1 in ENE 3.2 mph 11.3 mph 89 % 0.0 in
23:00 -4.8 °F -6.3 °F 970.1 in SSE 4.8 mph 20.9 mph 89 % 0.0 in
23:15 -4.8 °F -6.3 °F 969.8 in SE 4.8 mph 16.1 mph 89 % 0.0 in
23:30 -4.8 °F -6.3 °F 969.1 in ESE 4.8 mph 12.9 mph 89 % 0.0 in
23:45 -4.7 °F -6.3 °F 969.1 in SE 3.2 mph 19.3 mph 89 % 0.0 in
Esan sääasema
Terveisin Weather Underground - 2.75 mb

Alkuperäinen skripti  Jim McMurry - jmcmurry@mwt.net Sovitettu myös templatelle  Wim van der Kuil - Leuven-Template.eu

Laitteet joita käytämme:

Sääasema
Davis VP2

Sääasemaohjelma
Cumulus

Sääaseman tietokone
Asus EeePC

Palveluntarjoaja
Suncomet

Davis VP2

Cumulus

Asus EeePC

Suncomet